sensor_id;sensor_type;location;lat;lon;timestamp;temperature;humidity
10492;DHT22;5293;51.464;-2.566;2023-07-22T00:01:57;16.80;99.90
10492;DHT22;5293;51.464;-2.566;2023-07-22T00:04:23;16.80;99.90
10492;DHT22;5293;51.464;-2.566;2023-07-22T00:06:49;16.80;99.90
10492;DHT22;5293;51.464;-2.566;2023-07-22T00:09:14;16.80;99.90
10492;DHT22;5293;51.464;-2.566;2023-07-22T00:11:40;16.80;99.90
10492;DHT22;5293;51.464;-2.566;2023-07-22T00:14:05;16.90;99.90
10492;DHT22;5293;51.464;-2.566;2023-07-22T00:16:32;16.90;99.90
10492;DHT22;5293;51.464;-2.566;2023-07-22T00:18:57;16.70;99.90
10492;DHT22;5293;51.464;-2.566;2023-07-22T00:21:23;16.70;99.90
10492;DHT22;5293;51.464;-2.566;2023-07-22T00:23:48;16.70;99.90
10492;DHT22;5293;51.464;-2.566;2023-07-22T00:26:14;16.70;99.90
10492;DHT22;5293;51.464;-2.566;2023-07-22T00:28:40;16.70;99.90
10492;DHT22;5293;51.464;-2.566;2023-07-22T00:31:05;16.80;99.90
10492;DHT22;5293;51.464;-2.566;2023-07-22T00:33:31;16.80;99.90
10492;DHT22;5293;51.464;-2.566;2023-07-22T00:35:57;16.60;99.90
10492;DHT22;5293;51.464;-2.566;2023-07-22T00:38:23;16.60;99.90
10492;DHT22;5293;51.464;-2.566;2023-07-22T00:40:48;16.60;99.90
10492;DHT22;5293;51.464;-2.566;2023-07-22T00:43:14;16.70;99.90
10492;DHT22;5293;51.464;-2.566;2023-07-22T00:45:40;16.70;99.90
10492;DHT22;5293;51.464;-2.566;2023-07-22T00:48:07;16.70;99.90
10492;DHT22;5293;51.464;-2.566;2023-07-22T00:50:33;16.60;99.90
10492;DHT22;5293;51.464;-2.566;2023-07-22T00:52:59;16.60;99.90
10492;DHT22;5293;51.464;-2.566;2023-07-22T00:55:25;16.50;99.90
10492;DHT22;5293;51.464;-2.566;2023-07-22T00:57:51;16.50;99.90
10492;DHT22;5293;51.464;-2.566;2023-07-22T01:00:16;16.30;99.90
10492;DHT22;5293;51.464;-2.566;2023-07-22T01:02:43;16.40;99.90
10492;DHT22;5293;51.464;-2.566;2023-07-22T01:05:10;16.30;99.90
10492;DHT22;5293;51.464;-2.566;2023-07-22T01:07:37;16.40;99.90
10492;DHT22;5293;51.464;-2.566;2023-07-22T01:10:04;16.40;99.90
10492;DHT22;5293;51.464;-2.566;2023-07-22T01:12:31;16.30;99.90
10492;DHT22;5293;51.464;-2.566;2023-07-22T01:14:57;16.30;99.90
10492;DHT22;5293;51.464;-2.566;2023-07-22T01:17:24;16.20;99.90
10492;DHT22;5293;51.464;-2.566;2023-07-22T01:19:50;16.20;99.90
10492;DHT22;5293;51.464;-2.566;2023-07-22T01:22:16;16.20;99.90
10492;DHT22;5293;51.464;-2.566;2023-07-22T01:24:43;16.20;99.90
10492;DHT22;5293;51.464;-2.566;2023-07-22T01:27:11;16.20;99.90
10492;DHT22;5293;51.464;-2.566;2023-07-22T01:29:37;16.20;99.90
10492;DHT22;5293;51.464;-2.566;2023-07-22T01:32:03;16.10;99.90
10492;DHT22;5293;51.464;-2.566;2023-07-22T01:34:29;16.10;99.90
10492;DHT22;5293;51.464;-2.566;2023-07-22T01:36:57;16.10;99.90
10492;DHT22;5293;51.464;-2.566;2023-07-22T01:39:22;16.10;99.90
10492;DHT22;5293;51.464;-2.566;2023-07-22T01:41:48;16.10;99.90
10492;DHT22;5293;51.464;-2.566;2023-07-22T01:44:14;16.20;99.90
10492;DHT22;5293;51.464;-2.566;2023-07-22T01:46:40;16.00;99.90
10492;DHT22;5293;51.464;-2.566;2023-07-22T01:49:10;15.90;99.90
10492;DHT22;5293;51.464;-2.566;2023-07-22T01:51:37;15.80;99.90
10492;DHT22;5293;51.464;-2.566;2023-07-22T01:54:06;15.90;99.90
10492;DHT22;5293;51.464;-2.566;2023-07-22T01:56:32;15.90;99.90
10492;DHT22;5293;51.464;-2.566;2023-07-22T01:58:58;15.90;99.90
10492;DHT22;5293;51.464;-2.566;2023-07-22T02:01:23;15.90;99.90
10492;DHT22;5293;51.464;-2.566;2023-07-22T02:03:49;16.00;99.90
10492;DHT22;5293;51.464;-2.566;2023-07-22T02:06:15;16.00;99.90
10492;DHT22;5293;51.464;-2.566;2023-07-22T02:08:41;16.00;99.90
10492;DHT22;5293;51.464;-2.566;2023-07-22T02:11:08;16.10;99.90
10492;DHT22;5293;51.464;-2.566;2023-07-22T02:13:35;16.00;99.90
10492;DHT22;5293;51.464;-2.566;2023-07-22T02:16:01;16.00;99.90
10492;DHT22;5293;51.464;-2.566;2023-07-22T02:18:27;16.00;99.90
10492;DHT22;5293;51.464;-2.566;2023-07-22T02:20:54;16.00;99.90
10492;DHT22;5293;51.464;-2.566;2023-07-22T02:23:20;15.90;99.90
10492;DHT22;5293;51.464;-2.566;2023-07-22T02:25:50;15.90;99.90
10492;DHT22;5293;51.464;-2.566;2023-07-22T02:28:16;15.90;99.90
10492;DHT22;5293;51.464;-2.566;2023-07-22T02:30:46;15.90;99.90
10492;DHT22;5293;51.464;-2.566;2023-07-22T02:33:12;15.90;99.90
10492;DHT22;5293;51.464;-2.566;2023-07-22T02:35:37;15.80;99.90
10492;DHT22;5293;51.464;-2.566;2023-07-22T02:38:03;15.70;99.90
10492;DHT22;5293;51.464;-2.566;2023-07-22T02:40:28;15.70;99.90
10492;DHT22;5293;51.464;-2.566;2023-07-22T02:42:54;15.80;99.90
10492;DHT22;5293;51.464;-2.566;2023-07-22T02:45:20;15.90;99.90
10492;DHT22;5293;51.464;-2.566;2023-07-22T02:47:45;15.80;99.90
10492;DHT22;5293;51.464;-2.566;2023-07-22T02:50:11;16.00;99.90
10492;DHT22;5293;51.464;-2.566;2023-07-22T02:52:37;15.90;99.90
10492;DHT22;5293;51.464;-2.566;2023-07-22T02:55:10;15.90;99.90
10492;DHT22;5293;51.464;-2.566;2023-07-22T02:57:37;15.90;99.90
10492;DHT22;5293;51.464;-2.566;2023-07-22T03:00:04;15.80;99.90
10492;DHT22;5293;51.464;-2.566;2023-07-22T03:02:37;15.80;99.90
10492;DHT22;5293;51.464;-2.566;2023-07-22T03:05:07;15.70;99.90
10492;DHT22;5293;51.464;-2.566;2023-07-22T03:07:37;15.70;99.90
10492;DHT22;5293;51.464;-2.566;2023-07-22T03:10:04;15.70;99.90
10492;DHT22;5293;51.464;-2.566;2023-07-22T03:12:30;15.60;99.90
10492;DHT22;5293;51.464;-2.566;2023-07-22T03:14:55;15.60;99.90
10492;DHT22;5293;51.464;-2.566;2023-07-22T03:17:22;15.60;99.90
10492;DHT22;5293;51.464;-2.566;2023-07-22T03:19:48;15.50;99.90
10492;DHT22;5293;51.464;-2.566;2023-07-22T03:22:14;15.60;99.90
10492;DHT22;5293;51.464;-2.566;2023-07-22T03:24:41;15.50;99.90
10492;DHT22;5293;51.464;-2.566;2023-07-22T03:27:07;15.40;99.90
10492;DHT22;5293;51.464;-2.566;2023-07-22T03:29:33;15.40;99.90
10492;DHT22;5293;51.464;-2.566;2023-07-22T03:31:59;15.30;99.90
10492;DHT22;5293;51.464;-2.566;2023-07-22T03:34:27;15.40;99.90
10492;DHT22;5293;51.464;-2.566;2023-07-22T03:36:53;15.40;99.90
10492;DHT22;5293;51.464;-2.566;2023-07-22T03:39:19;15.40;99.90
10492;DHT22;5293;51.464;-2.566;2023-07-22T03:41:45;15.50;99.90
10492;DHT22;5293;51.464;-2.566;2023-07-22T03:44:11;15.40;99.90
10492;DHT22;5293;51.464;-2.566;2023-07-22T03:46:37;15.50;99.90
10492;DHT22;5293;51.464;-2.566;2023-07-22T03:49:03;15.50;99.90
10492;DHT22;5293;51.464;-2.566;2023-07-22T03:51:29;15.50;99.90
10492;DHT22;5293;51.464;-2.566;2023-07-22T03:53:54;15.40;99.90
10492;DHT22;5293;51.464;-2.566;2023-07-22T03:56:21;15.40;99.90
10492;DHT22;5293;51.464;-2.566;2023-07-22T03:58:49;15.40;99.90
10492;DHT22;5293;51.464;-2.566;2023-07-22T04:01:15;15.40;99.90
10492;DHT22;5293;51.464;-2.566;2023-07-22T04:03:41;15.40;99.90
10492;DHT22;5293;51.464;-2.566;2023-07-22T04:06:06;15.40;99.90
10492;DHT22;5293;51.464;-2.566;2023-07-22T04:08:32;15.30;99.90
10492;DHT22;5293;51.464;-2.566;2023-07-22T04:10:58;15.40;99.90
10492;DHT22;5293;51.464;-2.566;2023-07-22T04:13:25;15.40;99.90
10492;DHT22;5293;51.464;-2.566;2023-07-22T04:15:51;15.40;99.90
10492;DHT22;5293;51.464;-2.566;2023-07-22T04:18:17;15.40;99.90
10492;DHT22;5293;51.464;-2.566;2023-07-22T04:20:43;15.30;99.90
10492;DHT22;5293;51.464;-2.566;2023-07-22T04:23:10;15.30;99.90
10492;DHT22;5293;51.464;-2.566;2023-07-22T04:25:39;15.30;99.90
10492;DHT22;5293;51.464;-2.566;2023-07-22T04:28:05;15.30;99.90
10492;DHT22;5293;51.464;-2.566;2023-07-22T04:30:31;15.20;99.90
10492;DHT22;5293;51.464;-2.566;2023-07-22T04:32:57;15.20;99.90
10492;DHT22;5293;51.464;-2.566;2023-07-22T04:35:23;15.20;99.90
10492;DHT22;5293;51.464;-2.566;2023-07-22T04:37:48;15.10;99.90
10492;DHT22;5293;51.464;-2.566;2023-07-22T04:40:14;15.10;99.90
10492;DHT22;5293;51.464;-2.566;2023-07-22T04:42:44;15.10;99.90
10492;DHT22;5293;51.464;-2.566;2023-07-22T04:45:10;15.20;99.90
10492;DHT22;5293;51.464;-2.566;2023-07-22T04:47:39;15.20;99.90
10492;DHT22;5293;51.464;-2.566;2023-07-22T04:50:06;15.10;99.90
10492;DHT22;5293;51.464;-2.566;2023-07-22T04:52:36;15.10;99.90
10492;DHT22;5293;51.464;-2.566;2023-07-22T04:55:02;15.10;99.90
10492;DHT22;5293;51.464;-2.566;2023-07-22T04:57:35;15.00;99.90
10492;DHT22;5293;51.464;-2.566;2023-07-22T05:00:02;15.10;99.90
10492;DHT22;5293;51.464;-2.566;2023-07-22T05:02:29;15.10;99.90
10492;DHT22;5293;51.464;-2.566;2023-07-22T05:04:58;15.00;99.90
10492;DHT22;5293;51.464;-2.566;2023-07-22T05:07:24;15.00;99.90
10492;DHT22;5293;51.464;-2.566;2023-07-22T05:09:50;15.10;99.90
10492;DHT22;5293;51.464;-2.566;2023-07-22T05:12:17;15.10;99.90
10492;DHT22;5293;51.464;-2.566;2023-07-22T05:14:44;15.10;99.90
10492;DHT22;5293;51.464;-2.566;2023-07-22T05:17:10;15.10;99.90
10492;DHT22;5293;51.464;-2.566;2023-07-22T05:19:35;15.20;99.90
10492;DHT22;5293;51.464;-2.566;2023-07-22T05:22:01;15.30;99.90
10492;DHT22;5293;51.464;-2.566;2023-07-22T05:24:27;15.40;99.90
10492;DHT22;5293;51.464;-2.566;2023-07-22T05:26:52;15.40;99.90
10492;DHT22;5293;51.464;-2.566;2023-07-22T05:29:19;15.30;99.90
10492;DHT22;5293;51.464;-2.566;2023-07-22T05:31:45;15.30;99.90
10492;DHT22;5293;51.464;-2.566;2023-07-22T05:34:11;15.30;99.90
10492;DHT22;5293;51.464;-2.566;2023-07-22T05:36:37;15.40;99.90
10492;DHT22;5293;51.464;-2.566;2023-07-22T05:39:03;15.40;99.90
10492;DHT22;5293;51.464;-2.566;2023-07-22T05:41:29;15.50;99.90
10492;DHT22;5293;51.464;-2.566;2023-07-22T05:43:55;15.50;99.90
10492;DHT22;5293;51.464;-2.566;2023-07-22T05:46:21;15.60;99.90
10492;DHT22;5293;51.464;-2.566;2023-07-22T05:48:46;15.60;99.90
10492;DHT22;5293;51.464;-2.566;2023-07-22T05:51:12;15.70;99.90
10492;DHT22;5293;51.464;-2.566;2023-07-22T05:53:37;15.80;99.90
10492;DHT22;5293;51.464;-2.566;2023-07-22T05:56:03;15.70;99.90
10492;DHT22;5293;51.464;-2.566;2023-07-22T05:58:29;15.80;99.90
10492;DHT22;5293;51.464;-2.566;2023-07-22T06:00:54;15.70;99.90
10492;DHT22;5293;51.464;-2.566;2023-07-22T06:03:20;15.70;99.90
10492;DHT22;5293;51.464;-2.566;2023-07-22T06:05:46;15.70;99.90
10492;DHT22;5293;51.464;-2.566;2023-07-22T06:08:12;15.60;99.90
10492;DHT22;5293;51.464;-2.566;2023-07-22T06:10:40;15.60;99.90
10492;DHT22;5293;51.464;-2.566;2023-07-22T06:13:06;15.70;99.90
10492;DHT22;5293;51.464;-2.566;2023-07-22T06:15:32;15.90;99.90
10492;DHT22;5293;51.464;-2.566;2023-07-22T06:17:58;16.00;99.90
10492;DHT22;5293;51.464;-2.566;2023-07-22T06:20:24;16.00;99.90
10492;DHT22;5293;51.464;-2.566;2023-07-22T06:22:49;16.20;99.90
10492;DHT22;5293;51.464;-2.566;2023-07-22T06:25:15;16.10;99.90
10492;DHT22;5293;51.464;-2.566;2023-07-22T06:27:41;16.10;99.90
10492;DHT22;5293;51.464;-2.566;2023-07-22T06:30:07;16.10;99.90
10492;DHT22;5293;51.464;-2.566;2023-07-22T06:32:36;16.10;99.90
10492;DHT22;5293;51.464;-2.566;2023-07-22T06:35:02;16.20;99.90
10492;DHT22;5293;51.464;-2.566;2023-07-22T06:37:28;16.20;99.90
10492;DHT22;5293;51.464;-2.566;2023-07-22T06:39:54;16.20;99.90
10492;DHT22;5293;51.464;-2.566;2023-07-22T06:42:19;16.30;99.90
10492;DHT22;5293;51.464;-2.566;2023-07-22T06:44:45;16.30;99.90
10492;DHT22;5293;51.464;-2.566;2023-07-22T06:47:11;16.40;99.90
10492;DHT22;5293;51.464;-2.566;2023-07-22T06:49:36;16.40;99.90
10492;DHT22;5293;51.464;-2.566;2023-07-22T06:52:02;16.40;99.90
10492;DHT22;5293;51.464;-2.566;2023-07-22T06:54:28;16.40;99.90
10492;DHT22;5293;51.464;-2.566;2023-07-22T06:56:54;16.50;99.90
10492;DHT22;5293;51.464;-2.566;2023-07-22T06:59:19;16.50;99.90
10492;DHT22;5293;51.464;-2.566;2023-07-22T07:01:45;16.50;99.90
10492;DHT22;5293;51.464;-2.566;2023-07-22T07:04:11;16.50;99.90
10492;DHT22;5293;51.464;-2.566;2023-07-22T07:06:36;16.40;99.90
10492;DHT22;5293;51.464;-2.566;2023-07-22T07:09:03;16.40;99.90
10492;DHT22;5293;51.464;-2.566;2023-07-22T07:11:31;16.40;99.90
10492;DHT22;5293;51.464;-2.566;2023-07-22T07:13:57;16.60;99.90
10492;DHT22;5293;51.464;-2.566;2023-07-22T07:16:27;16.70;99.90
10492;DHT22;5293;51.464;-2.566;2023-07-22T07:18:53;16.60;99.90
10492;DHT22;5293;51.464;-2.566;2023-07-22T07:21:20;16.60;99.90
10492;DHT22;5293;51.464;-2.566;2023-07-22T07:23:46;16.70;99.90
10492;DHT22;5293;51.464;-2.566;2023-07-22T07:26:11;16.60;99.90
10492;DHT22;5293;51.464;-2.566;2023-07-22T07:28:37;16.80;99.90
10492;DHT22;5293;51.464;-2.566;2023-07-22T07:31:03;16.90;99.90
10492;DHT22;5293;51.464;-2.566;2023-07-22T07:33:29;17.00;99.90
10492;DHT22;5293;51.464;-2.566;2023-07-22T07:35:54;17.00;99.90
10492;DHT22;5293;51.464;-2.566;2023-07-22T07:38:20;16.80;99.90
10492;DHT22;5293;51.464;-2.566;2023-07-22T07:40:46;16.90;99.90
10492;DHT22;5293;51.464;-2.566;2023-07-22T07:43:11;17.00;99.90
10492;DHT22;5293;51.464;-2.566;2023-07-22T07:45:39;17.20;99.90
10492;DHT22;5293;51.464;-2.566;2023-07-22T07:48:05;17.20;99.90
10492;DHT22;5293;51.464;-2.566;2023-07-22T07:50:32;17.10;99.90
10492;DHT22;5293;51.464;-2.566;2023-07-22T07:52:58;17.10;99.90
10492;DHT22;5293;51.464;-2.566;2023-07-22T07:55:25;16.90;99.90
10492;DHT22;5293;51.464;-2.566;2023-07-22T07:57:51;16.80;99.90
10492;DHT22;5293;51.464;-2.566;2023-07-22T08:00:16;16.80;99.90
10492;DHT22;5293;51.464;-2.566;2023-07-22T08:02:42;16.90;99.90
10492;DHT22;5293;51.464;-2.566;2023-07-22T08:05:08;16.90;99.90
10492;DHT22;5293;51.464;-2.566;2023-07-22T08:07:34;16.90;99.90
10492;DHT22;5293;51.464;-2.566;2023-07-22T08:10:00;16.80;99.90
10492;DHT22;5293;51.464;-2.566;2023-07-22T08:12:26;16.80;99.90
10492;DHT22;5293;51.464;-2.566;2023-07-22T08:14:53;16.80;99.90
10492;DHT22;5293;51.464;-2.566;2023-07-22T08:17:19;16.80;99.90
10492;DHT22;5293;51.464;-2.566;2023-07-22T08:19:44;16.80;99.90
10492;DHT22;5293;51.464;-2.566;2023-07-22T08:22:10;16.70;99.90
10492;DHT22;5293;51.464;-2.566;2023-07-22T08:24:36;16.70;99.90
10492;DHT22;5293;51.464;-2.566;2023-07-22T08:27:02;16.60;99.90
10492;DHT22;5293;51.464;-2.566;2023-07-22T08:29:27;16.50;99.90
10492;DHT22;5293;51.464;-2.566;2023-07-22T08:31:53;16.40;99.90
10492;DHT22;5293;51.464;-2.566;2023-07-22T08:34:19;16.50;99.90
10492;DHT22;5293;51.464;-2.566;2023-07-22T08:36:44;16.50;99.90
10492;DHT22;5293;51.464;-2.566;2023-07-22T08:39:10;16.60;99.90
10492;DHT22;5293;51.464;-2.566;2023-07-22T08:41:36;16.50;99.90
10492;DHT22;5293;51.464;-2.566;2023-07-22T08:44:04;16.50;99.90
10492;DHT22;5293;51.464;-2.566;2023-07-22T08:46:33;16.40;99.90
10492;DHT22;5293;51.464;-2.566;2023-07-22T08:49:00;16.50;99.90
10492;DHT22;5293;51.464;-2.566;2023-07-22T08:51:26;16.40;99.90
10492;DHT22;5293;51.464;-2.566;2023-07-22T08:53:59;16.40;99.90
10492;DHT22;5293;51.464;-2.566;2023-07-22T08:56:25;16.30;99.90
10492;DHT22;5293;51.464;-2.566;2023-07-22T08:58:53;16.40;99.90
10492;DHT22;5293;51.464;-2.566;2023-07-22T09:01:20;16.30;99.90
10492;DHT22;5293;51.464;-2.566;2023-07-22T09:03:48;16.30;99.90
10492;DHT22;5293;51.464;-2.566;2023-07-22T09:06:17;16.30;99.90
10492;DHT22;5293;51.464;-2.566;2023-07-22T09:08:43;16.30;99.90
10492;DHT22;5293;51.464;-2.566;2023-07-22T09:11:09;16.40;99.90
10492;DHT22;5293;51.464;-2.566;2023-07-22T09:13:35;16.40;99.90
10492;DHT22;5293;51.464;-2.566;2023-07-22T09:16:04;16.40;99.90
10492;DHT22;5293;51.464;-2.566;2023-07-22T09:18:33;16.50;99.90
10492;DHT22;5293;51.464;-2.566;2023-07-22T09:20:59;16.40;99.90
10492;DHT22;5293;51.464;-2.566;2023-07-22T09:23:38;16.40;99.90
10492;DHT22;5293;51.464;-2.566;2023-07-22T09:26:18;16.40;99.90
10492;DHT22;5293;51.464;-2.566;2023-07-22T09:28:57;16.40;99.90
10492;DHT22;5293;51.464;-2.566;2023-07-22T09:31:27;16.30;99.90
10492;DHT22;5293;51.464;-2.566;2023-07-22T09:34:09;16.30;99.90
10492;DHT22;5293;51.464;-2.566;2023-07-22T09:36:56;16.30;99.90
10492;DHT22;5293;51.464;-2.566;2023-07-22T09:39:24;16.30;99.90
10492;DHT22;5293;51.464;-2.566;2023-07-22T09:41:50;16.30;99.90
10492;DHT22;5293;51.464;-2.566;2023-07-22T09:44:18;16.40;99.90
10492;DHT22;5293;51.464;-2.566;2023-07-22T09:46:50;16.50;99.90
10492;DHT22;5293;51.464;-2.566;2023-07-22T09:49:17;16.50;99.90
10492;DHT22;5293;51.464;-2.566;2023-07-22T09:51:43;16.60;99.90
10492;DHT22;5293;51.464;-2.566;2023-07-22T09:54:09;16.60;99.90
10492;DHT22;5293;51.464;-2.566;2023-07-22T09:56:46;16.60;99.90
10492;DHT22;5293;51.464;-2.566;2023-07-22T09:59:13;16.60;99.90
10492;DHT22;5293;51.464;-2.566;2023-07-22T10:01:39;16.50;99.90
10492;DHT22;5293;51.464;-2.566;2023-07-22T10:04:06;16.50;99.90
10492;DHT22;5293;51.464;-2.566;2023-07-22T10:06:33;16.50;99.90
10492;DHT22;5293;51.464;-2.566;2023-07-22T10:09:04;16.40;99.90
10492;DHT22;5293;51.464;-2.566;2023-07-22T10:11:34;16.40;99.90
10492;DHT22;5293;51.464;-2.566;2023-07-22T10:14:02;16.40;99.90
10492;DHT22;5293;51.464;-2.566;2023-07-22T10:16:28;16.40;99.90
10492;DHT22;5293;51.464;-2.566;2023-07-22T10:18:54;16.40;99.90
10492;DHT22;5293;51.464;-2.566;2023-07-22T10:21:21;16.50;99.90
10492;DHT22;5293;51.464;-2.566;2023-07-22T10:23:48;16.50;99.90
10492;DHT22;5293;51.464;-2.566;2023-07-22T10:26:18;16.50;99.90
10492;DHT22;5293;51.464;-2.566;2023-07-22T10:28:45;16.60;99.90
10492;DHT22;5293;51.464;-2.566;2023-07-22T10:31:11;16.60;99.90
10492;DHT22;5293;51.464;-2.566;2023-07-22T10:33:38;16.50;99.90
10492;DHT22;5293;51.464;-2.566;2023-07-22T10:36:08;16.30;99.90
10492;DHT22;5293;51.464;-2.566;2023-07-22T10:38:35;16.30;99.90
10492;DHT22;5293;51.464;-2.566;2023-07-22T10:41:04;16.30;99.90
10492;DHT22;5293;51.464;-2.566;2023-07-22T10:43:36;16.30;99.90
10492;DHT22;5293;51.464;-2.566;2023-07-22T10:46:31;16.50;99.90
10492;DHT22;5293;51.464;-2.566;2023-07-22T10:49:15;16.50;99.90
10492;DHT22;5293;51.464;-2.566;2023-07-22T10:51:46;16.40;99.90
10492;DHT22;5293;51.464;-2.566;2023-07-22T10:54:13;16.40;99.90
10492;DHT22;5293;51.464;-2.566;2023-07-22T10:56:42;16.50;99.90
10492;DHT22;5293;51.464;-2.566;2023-07-22T10:59:10;16.60;99.90
10492;DHT22;5293;51.464;-2.566;2023-07-22T11:01:43;16.60;99.90
10492;DHT22;5293;51.464;-2.566;2023-07-22T11:12:11;16.70;99.90
10492;DHT22;5293;51.464;-2.566;2023-07-22T11:14:50;16.60;99.90
10492;DHT22;5293;51.464;-2.566;2023-07-22T11:17:17;16.50;99.90
10492;DHT22;5293;51.464;-2.566;2023-07-22T11:19:43;16.50;99.90
10492;DHT22;5293;51.464;-2.566;2023-07-22T11:22:10;16.50;99.90
10492;DHT22;5293;51.464;-2.566;2023-07-22T11:24:36;16.50;99.90
10492;DHT22;5293;51.464;-2.566;2023-07-22T11:27:06;16.60;99.90
10492;DHT22;5293;51.464;-2.566;2023-07-22T11:29:32;16.70;99.90
10492;DHT22;5293;51.464;-2.566;2023-07-22T11:31:58;16.70;99.90
10492;DHT22;5293;51.464;-2.566;2023-07-22T11:34:24;16.70;99.90
10492;DHT22;5293;51.464;-2.566;2023-07-22T11:36:51;16.70;99.90
10492;DHT22;5293;51.464;-2.566;2023-07-22T11:39:25;16.70;99.90
10492;DHT22;5293;51.464;-2.566;2023-07-22T11:41:52;16.70;99.90
10492;DHT22;5293;51.464;-2.566;2023-07-22T11:44:20;16.70;99.90
10492;DHT22;5293;51.464;-2.566;2023-07-22T11:46:56;16.70;99.90
10492;DHT22;5293;51.464;-2.566;2023-07-22T11:52:03;16.80;99.90
10492;DHT22;5293;51.464;-2.566;2023-07-22T11:54:30;16.80;99.90
10492;DHT22;5293;51.464;-2.566;2023-07-22T11:56:57;16.90;99.90
10492;DHT22;5293;51.464;-2.566;2023-07-22T11:59:39;16.90;99.90
10492;DHT22;5293;51.464;-2.566;2023-07-22T12:02:05;16.90;99.90
10492;DHT22;5293;51.464;-2.566;2023-07-22T12:04:32;16.90;99.90
10492;DHT22;5293;51.464;-2.566;2023-07-22T12:06:58;17.00;99.90
10492;DHT22;5293;51.464;-2.566;2023-07-22T12:09:24;16.90;99.90
10492;DHT22;5293;51.464;-2.566;2023-07-22T12:11:58;17.10;99.90
10492;DHT22;5293;51.464;-2.566;2023-07-22T12:14:24;17.10;99.90
10492;DHT22;5293;51.464;-2.566;2023-07-22T12:16:55;17.20;99.90
10492;DHT22;5293;51.464;-2.566;2023-07-22T12:19:22;17.10;99.90
10492;DHT22;5293;51.464;-2.566;2023-07-22T12:21:48;17.20;99.90
10492;DHT22;5293;51.464;-2.566;2023-07-22T12:24:14;17.40;99.90
10492;DHT22;5293;51.464;-2.566;2023-07-22T12:26:40;17.30;99.90
10492;DHT22;5293;51.464;-2.566;2023-07-22T12:29:07;17.30;99.90
10492;DHT22;5293;51.464;-2.566;2023-07-22T12:31:33;17.40;99.90
10492;DHT22;5293;51.464;-2.566;2023-07-22T12:33:59;17.50;99.90
10492;DHT22;5293;51.464;-2.566;2023-07-22T12:36:25;17.50;99.90
10492;DHT22;5293;51.464;-2.566;2023-07-22T12:38:51;17.50;99.90
10492;DHT22;5293;51.464;-2.566;2023-07-22T12:41:16;17.50;99.90
10492;DHT22;5293;51.464;-2.566;2023-07-22T12:43:42;17.50;99.90
10492;DHT22;5293;51.464;-2.566;2023-07-22T12:46:08;17.60;99.90
10492;DHT22;5293;51.464;-2.566;2023-07-22T12:48:33;17.70;99.90
10492;DHT22;5293;51.464;-2.566;2023-07-22T12:50:59;17.90;99.90
10492;DHT22;5293;51.464;-2.566;2023-07-22T12:53:26;18.00;99.90
10492;DHT22;5293;51.464;-2.566;2023-07-22T12:55:52;18.10;99.90
10492;DHT22;5293;51.464;-2.566;2023-07-22T12:58:17;18.20;99.90
10492;DHT22;5293;51.464;-2.566;2023-07-22T13:00:43;18.30;99.90
10492;DHT22;5293;51.464;-2.566;2023-07-22T13:03:08;18.40;99.90
10492;DHT22;5293;51.464;-2.566;2023-07-22T13:05:34;18.40;99.90
10492;DHT22;5293;51.464;-2.566;2023-07-22T13:08:00;18.40;99.90
10492;DHT22;5293;51.464;-2.566;2023-07-22T13:10:27;18.50;99.90
10492;DHT22;5293;51.464;-2.566;2023-07-22T13:12:54;18.50;99.90
10492;DHT22;5293;51.464;-2.566;2023-07-22T13:15:20;18.50;99.90
10492;DHT22;5293;51.464;-2.566;2023-07-22T13:17:46;18.50;99.90
10492;DHT22;5293;51.464;-2.566;2023-07-22T13:20:11;18.50;99.90
10492;DHT22;5293;51.464;-2.566;2023-07-22T13:22:40;18.60;99.90
10492;DHT22;5293;51.464;-2.566;2023-07-22T13:25:06;18.60;99.90
10492;DHT22;5293;51.464;-2.566;2023-07-22T13:27:32;18.60;99.90
10492;DHT22;5293;51.464;-2.566;2023-07-22T13:29:57;18.50;99.90
10492;DHT22;5293;51.464;-2.566;2023-07-22T13:32:23;18.30;99.90
10492;DHT22;5293;51.464;-2.566;2023-07-22T13:34:49;18.40;99.90
10492;DHT22;5293;51.464;-2.566;2023-07-22T13:37:15;18.40;99.90
10492;DHT22;5293;51.464;-2.566;2023-07-22T13:39:41;18.50;99.90
10492;DHT22;5293;51.464;-2.566;2023-07-22T13:42:07;18.50;99.90
10492;DHT22;5293;51.464;-2.566;2023-07-22T13:44:33;18.60;99.90
10492;DHT22;5293;51.464;-2.566;2023-07-22T13:46:59;18.50;99.90
10492;DHT22;5293;51.464;-2.566;2023-07-22T13:49:25;18.50;99.90
10492;DHT22;5293;51.464;-2.566;2023-07-22T13:51:50;18.40;99.90
10492;DHT22;5293;51.464;-2.566;2023-07-22T13:54:16;18.50;99.90
10492;DHT22;5293;51.464;-2.566;2023-07-22T13:56:42;18.40;99.90
10492;DHT22;5293;51.464;-2.566;2023-07-22T13:59:09;18.30;99.90
10492;DHT22;5293;51.464;-2.566;2023-07-22T14:01:34;18.30;99.90
10492;DHT22;5293;51.464;-2.566;2023-07-22T14:04:00;18.30;99.90
10492;DHT22;5293;51.464;-2.566;2023-07-22T14:06:26;18.30;99.90
10492;DHT22;5293;51.464;-2.566;2023-07-22T14:08:51;18.40;99.90
10492;DHT22;5293;51.464;-2.566;2023-07-22T14:11:18;18.50;99.90
10492;DHT22;5293;51.464;-2.566;2023-07-22T14:13:43;18.60;99.90
10492;DHT22;5293;51.464;-2.566;2023-07-22T14:16:09;18.70;99.90
10492;DHT22;5293;51.464;-2.566;2023-07-22T14:18:35;18.70;99.90
10492;DHT22;5293;51.464;-2.566;2023-07-22T14:21:01;18.70;99.90
10492;DHT22;5293;51.464;-2.566;2023-07-22T14:23:26;18.80;99.90
10492;DHT22;5293;51.464;-2.566;2023-07-22T14:25:52;18.70;99.90
10492;DHT22;5293;51.464;-2.566;2023-07-22T14:28:17;18.70;99.90
10492;DHT22;5293;51.464;-2.566;2023-07-22T14:30:43;18.70;99.90
10492;DHT22;5293;51.464;-2.566;2023-07-22T14:33:09;18.80;99.90
10492;DHT22;5293;51.464;-2.566;2023-07-22T14:35:34;18.70;99.90
10492;DHT22;5293;51.464;-2.566;2023-07-22T14:38:01;18.70;99.90
10492;DHT22;5293;51.464;-2.566;2023-07-22T14:40:26;18.80;99.90
10492;DHT22;5293;51.464;-2.566;2023-07-22T14:42:52;19.00;99.90
10492;DHT22;5293;51.464;-2.566;2023-07-22T14:45:18;18.80;99.90
10492;DHT22;5293;51.464;-2.566;2023-07-22T14:47:43;18.80;99.90
10492;DHT22;5293;51.464;-2.566;2023-07-22T14:50:09;18.70;99.90
10492;DHT22;5293;51.464;-2.566;2023-07-22T14:52:35;18.70;99.90
10492;DHT22;5293;51.464;-2.566;2023-07-22T14:55:01;18.70;99.90
10492;DHT22;5293;51.464;-2.566;2023-07-22T14:57:27;18.70;99.90
10492;DHT22;5293;51.464;-2.566;2023-07-22T14:59:55;18.80;99.90
10492;DHT22;5293;51.464;-2.566;2023-07-22T15:02:21;18.80;99.90
10492;DHT22;5293;51.464;-2.566;2023-07-22T15:04:50;18.90;99.90
10492;DHT22;5293;51.464;-2.566;2023-07-22T15:07:15;18.90;99.90
10492;DHT22;5293;51.464;-2.566;2023-07-22T15:09:41;18.90;99.90
10492;DHT22;5293;51.464;-2.566;2023-07-22T15:12:07;19.00;99.90
10492;DHT22;5293;51.464;-2.566;2023-07-22T15:14:34;19.20;99.90
10492;DHT22;5293;51.464;-2.566;2023-07-22T15:17:00;19.40;99.90
10492;DHT22;5293;51.464;-2.566;2023-07-22T15:19:25;19.60;99.90
10492;DHT22;5293;51.464;-2.566;2023-07-22T15:21:51;19.60;99.90
10492;DHT22;5293;51.464;-2.566;2023-07-22T15:24:18;19.60;99.90
10492;DHT22;5293;51.464;-2.566;2023-07-22T15:26:44;19.60;99.90
10492;DHT22;5293;51.464;-2.566;2023-07-22T15:29:09;19.60;99.90
10492;DHT22;5293;51.464;-2.566;2023-07-22T15:31:35;19.70;99.90
10492;DHT22;5293;51.464;-2.566;2023-07-22T15:34:00;19.70;99.90
10492;DHT22;5293;51.464;-2.566;2023-07-22T15:36:26;19.90;99.90
10492;DHT22;5293;51.464;-2.566;2023-07-22T15:38:52;19.90;99.90